Time;durP1;ratioP1;P1;durP2;ratioP2;P2;SDS_P1;SDS_P2;PMS_P1;PMS_P2;Temp;Humidity;BMP_temperature;BMP_pressure;BME280_temperature;BME280_humidity;BME280_pressure;Samples;Min_cycle;Max_cycle;Signal;HPM_P1;HPM_P2
2022/11/11 00:00:23;;;;;;;40.43;36.77;;;;;;;20.85;40.07;96170.38;6167169;28;104946;-78
2022/11/11 00:03:26;;;;;;;38.77;35.17;;;;;;;20.84;39.98;96176.75;6167089;28;102998;-78
2022/11/11 00:06:31;;;;;;;39.17;35.77;;;;;;;20.83;40.26;96175.13;6160084;28;106166;-78
2022/11/11 00:09:34;;;;;;;40.00;36.60;;;;;;;20.84;40.26;96170.66;6167908;28;103950;-78
2022/11/11 00:12:39;;;;;;;38.13;34.83;;;;;;;20.81;40.17;96173.81;6166820;28;104516;-78
2022/11/11 00:15:42;;;;;;;39.40;36.10;;;;;;;20.79;40.20;96173.28;6166676;28;103475;-78
2022/11/11 00:25:35;;;;;;;37.17;33.80;;;;;;;20.79;39.74;96171.44;6168091;28;102982;-79
2022/11/11 00:28:40;;;;;;;36.40;33.50;;;;;;;20.76;39.92;96171.97;6159924;28;105887;-79
2022/11/11 00:41:41;;;;;;;35.70;32.70;;;;;;;20.75;40.02;96173.03;6159340;28;104320;-78
2022/11/11 00:44:46;;;;;;;35.27;32.07;;;;;;;20.73;40.23;96169.84;6166715;28;103044;-78
2022/11/11 00:51:10;;;;;;;35.47;32.57;;;;;;;20.68;40.12;96166.41;6163666;28;106924;-78
2022/11/11 00:54:13;;;;;;;34.67;31.77;;;;;;;20.70;40.65;96167.75;6161434;28;103929;-78
2022/11/11 00:57:16;;;;;;;33.97;31.07;;;;;;;20.68;40.15;96161.91;6166261;28;103402;-78
2022/11/11 01:00:21;;;;;;;32.87;30.07;;;;;;;20.69;40.19;96165.34;6165848;28;103322;-77
2022/11/11 01:03:24;;;;;;;32.40;29.50;;;;;;;20.69;40.18;96168.00;6157987;28;103772;-77
2022/11/11 01:06:28;;;;;;;33.23;30.23;;;;;;;20.68;40.35;96164.56;6165411;28;103179;-77
2022/11/11 01:09:31;;;;;;;32.47;29.77;;;;;;;20.69;40.06;96158.16;6166850;28;102825;-77
2022/11/11 01:12:34;;;;;;;32.23;29.43;;;;;;;20.67;40.07;96160.31;6165835;28;103491;-76
2022/11/11 01:15:40;;;;;;;32.00;29.37;;;;;;;20.64;40.45;96152.84;6152903;28;105151;-76
2022/11/11 01:18:43;;;;;;;30.87;28.17;;;;;;;20.66;40.16;96158.69;6157287;28;104098;-76
2022/11/11 01:21:46;;;;;;;30.97;28.30;;;;;;;20.62;40.13;96152.31;6164407;28;107453;-77
2022/11/11 01:24:50;;;;;;;30.27;27.70;;;;;;;20.65;40.18;96162.41;6164937;28;103508;-77
2022/11/11 01:27:53;;;;;;;29.60;27.07;;;;;;;20.62;40.09;96162.94;6151718;28;103502;-77
2022/11/11 01:31:03;;;;;;;30.67;27.97;;;;;;;20.60;39.89;96163.22;6164602;28;103280;-75
2022/11/11 01:34:06;;;;;;;29.60;27.10;;;;;;;20.61;40.36;96162.16;6164990;28;104342;-76
2022/11/11 01:37:09;;;;;;;30.40;27.57;;;;;;;20.60;40.43;96159.75;6157349;28;107472;-76
2022/11/11 01:40:12;;;;;;;28.37;25.87;;;;;;;20.60;40.40;96152.59;6164226;28;103785;-77
2022/11/11 01:43:21;;;;;;;28.40;25.90;;;;;;;20.58;40.39;96152.06;6165453;28;102785;-77
2022/11/11 01:46:34;;;;;;;29.10;26.70;;;;;;;20.54;40.30;96151.00;6164507;28;104383;-77
2022/11/11 01:49:41;;;;;;;28.33;26.03;;;;;;;20.56;40.36;96153.41;6156823;28;105486;-76
2022/11/11 01:52:45;;;;;;;27.37;25.07;;;;;;;20.56;40.36;96158.72;6164740;28;107522;-77
2022/11/11 01:55:48;;;;;;;26.20;23.90;;;;;;;20.55;39.95;96159.78;6164758;28;103026;-77
2022/11/11 01:58:55;;;;;;;25.93;23.73;;;;;;;20.55;40.44;96162.44;6165562;28;103725;-77
2022/11/11 02:02:06;;;;;;;25.70;23.50;;;;;;;20.54;40.13;96164.31;6158182;28;103222;-77
2022/11/11 02:08:37;;;;;;;24.40;22.30;;;;;;;20.45;40.92;96165.09;6164727;28;103274;-77
2022/11/11 02:15:05;;;;;;;23.10;21.00;;;;;;;20.36;41.20;96170.16;6159050;28;104622;-76
2022/11/11 02:18:11;;;;;;;22.60;20.70;;;;;;;20.37;41.29;96171.75;6153270;28;105160;-76
2022/11/11 02:21:21;;;;;;;22.53;20.60;;;;;;;20.36;41.11;96178.16;6164092;28;106275;-76
2022/11/11 02:24:27;;;;;;;24.67;22.47;;;;;;;20.31;41.39;96181.56;6154613;28;103680;-76
2022/11/11 02:27:32;;;;;;;23.60;21.40;;;;;;;20.32;41.03;96187.69;6163944;28;102708;-76
2022/11/11 02:30:35;;;;;;;21.53;19.73;;;;;;;20.30;41.09;96179.97;6163200;28;103255;-76
2022/11/11 02:33:39;;;;;;;23.67;21.60;;;;;;;20.27;41.15;96169.88;6159419;28;104480;-76
2022/11/11 02:36:44;;;;;;;22.03;20.10;;;;;;;20.27;41.22;96177.06;6159590;28;102859;-77
2022/11/11 02:39:53;;;;;;;22.30;20.30;;;;;;;20.23;41.23;96165.34;6164868;28;104885;-77
2022/11/11 02:43:07;;;;;;;23.73;21.73;;;;;;;20.25;41.24;96179.19;6158353;28;106833;-77
2022/11/11 02:46:10;;;;;;;21.43;19.63;;;;;;;20.25;41.26;96185.31;6155855;28;103144;-77
2022/11/11 02:49:13;;;;;;;21.80;19.90;;;;;;;20.22;41.24;96183.16;6168359;28;103353;-77
2022/11/11 02:52:16;;;;;;;21.00;19.10;;;;;;;20.21;41.34;96184.22;6169082;28;103640;-77
2022/11/11 02:55:22;;;;;;;21.43;19.53;;;;;;;20.21;41.07;96189.53;6168963;28;107232;-77
2022/11/11 02:58:25;;;;;;;21.27;19.37;;;;;;;20.22;41.18;96187.69;6158416;28;104246;-77
2022/11/11 03:01:28;;;;;;;20.90;19.20;;;;;;;20.21;41.55;96183.41;6168054;28;104388;-77
2022/11/11 03:04:32;;;;;;;21.77;19.90;;;;;;;20.18;41.30;96184.75;6166951;28;106252;-77
2022/11/11 03:07:35;;;;;;;20.97;19.23;;;;;;;20.18;41.30;96183.97;6163029;28;103016;-77
2022/11/11 03:10:40;;;;;;;21.60;19.80;;;;;;;20.16;41.31;96184.19;6162839;28;106529;-77
2022/11/11 03:13:43;;;;;;;20.43;18.57;;;;;;;20.15;41.30;96193.22;6167158;28;105504;-77
2022/11/11 03:23:31;;;;;;;22.27;20.27;;;;;;;20.13;41.24;96186.59;6167765;28;103527;-77
2022/11/11 03:26:37;;;;;;;21.23;19.20;;;;;;;20.14;41.45;96193.50;6167639;28;103791;-77
2022/11/11 03:29:40;;;;;;;20.23;18.47;;;;;;;20.12;41.39;96196.44;6163951;28;104794;-77
2022/11/11 03:32:43;;;;;;;20.53;18.73;;;;;;;20.10;41.43;96187.91;6158407;28;104057;-76
2022/11/11 03:35:48;;;;;;;21.00;19.13;;;;;;;20.09;41.42;96185.53;6157848;28;104415;-76
2022/11/11 03:38:50;;;;;;;19.10;17.50;;;;;;;20.08;41.07;96187.41;6163969;28;102899;-77
2022/11/11 03:41:54;;;;;;;20.20;18.50;;;;;;;20.07;41.55;96185.81;6164705;28;104232;-78
2022/11/11 03:44:58;;;;;;;20.80;18.93;;;;;;;20.05;41.54;96179.16;6159035;28;105690;-77
2022/11/11 03:48:01;;;;;;;20.10;18.40;;;;;;;20.08;41.50;96183.94;6167375;28;103968;-77
2022/11/11 03:51:04;;;;;;;20.07;18.37;;;;;;;20.08;41.21;96184.75;6168930;28;104918;-77
2022/11/11 03:54:08;;;;;;;21.13;19.33;;;;;;;20.03;41.47;96180.22;6155352;28;105414;-78
2022/11/11 03:57:31;;;;;;;19.43;17.73;;;;;;;20.11;41.18;96192.19;6168855;28;106990;-81
2022/11/11 04:00:35;;;;;;;19.67;17.80;;;;;;;20.19;42.67;96188.22;6149148;28;102996;-80
2022/11/11 04:10:22;;;;;;;19.70;17.67;;;;;;;20.18;42.58;96178.66;6168379;28;102980;-78
2022/11/11 04:16:48;;;;;;;20.33;18.20;;;;;;;20.20;42.74;96189.81;6159848;28;104709;-79
2022/11/11 04:23:14;;;;;;;22.80;20.70;;;;;;;20.23;42.61;96184.75;6126023;28;104218;-79
2022/11/11 04:26:16;;;;;;;28.73;26.13;;;;;;;20.13;42.65;96163.47;6167953;28;103395;-78
2022/11/11 04:29:29;;;;;;;32.53;29.67;;;;;;;20.25;42.76;96174.69;6159642;28;104512;-78
2022/11/11 04:32:37;;;;;;;36.33;33.33;;;;;;;20.20;43.26;96182.63;6168502;28;106236;-78
2022/11/11 04:35:41;;;;;;;35.43;32.33;;;;;;;20.25;43.00;96187.16;6169117;28;105494;-78
2022/11/11 04:42:19;;;;;;;36.47;32.50;;;;;;;19.96;41.79;96192.94;6065545;28;103832;-79
2022/11/11 04:45:34;;;;;;;35.80;32.40;;;;;;;19.98;42.21;96190.03;6070241;28;105221;-79
2022/11/11 04:48:38;;;;;;;72.20;41.77;;;;;;;20.01;41.50;96187.66;6169272;28;106280;-79
2022/11/11 04:58:26;;;;;;;34.20;30.63;;;;;;;20.24;43.67;96191.69;6168509;28;106406;-79
2022/11/11 05:04:51;;;;;;;33.03;29.50;;;;;;;20.32;44.49;96196.47;6163188;28;102955;-78
2022/11/11 05:11:16;;;;;;;32.80;28.63;;;;;;;20.25;44.47;96198.59;6159097;28;106863;-79
2022/11/11 05:27:43;;;;;;;30.27;25.13;;;;;;;20.24;44.91;96210.28;6162551;28;105148;-79
2022/11/11 05:30:46;;;;;;;29.87;26.67;;;;;;;20.18;44.99;96208.69;6165667;28;103059;-79
2022/11/11 05:33:50;;;;;;;32.90;26.20;;;;;;;20.17;44.74;96206.28;6166148;28;103019;-79
2022/11/11 05:36:54;;;;;;;28.13;25.10;;;;;;;20.15;44.71;96219.00;6157894;28;102904;-80
2022/11/11 05:39:57;;;;;;;26.23;23.63;;;;;;;20.12;44.58;96224.84;6165967;28;105207;-79
2022/11/11 05:43:00;;;;;;;27.77;24.90;;;;;;;20.12;44.53;96227.50;6165518;28;105026;-79
2022/11/11 05:46:03;;;;;;;27.67;24.83;;;;;;;20.02;44.58;96218.47;6167188;28;102924;-79
2022/11/11 05:49:17;;;;;;;31.87;24.70;;;;;;;20.07;44.48;96232.84;6157692;28;104839;-79
2022/11/11 05:52:20;;;;;;;28.43;25.40;;;;;;;20.03;44.76;96249.31;6166304;28;102831;-78
2022/11/11 05:55:23;;;;;;;26.90;24.00;;;;;;;20.08;44.47;96253.81;6166479;28;103567;-79
2022/11/11 05:58:27;;;;;;;27.23;23.90;;;;;;;20.03;44.07;96251.97;6168262;28;103028;-79
2022/11/11 06:01:30;;;;;;;28.00;25.20;;;;;;;20.05;44.60;96256.22;6159513;28;104578;-78
2022/11/11 06:04:34;;;;;;;27.57;24.87;;;;;;;20.01;44.57;96262.06;6168102;28;105113;-79
2022/11/11 06:07:42;;;;;;;26.70;24.00;;;;;;;20.00;44.67;96260.47;6167067;28;105430;-78
2022/11/11 06:10:45;;;;;;;27.13;24.30;;;;;;;20.01;44.38;96272.69;6160814;28;103491;-79
2022/11/11 06:13:48;;;;;;;26.47;23.97;;;;;;;19.90;44.25;96263.06;6167200;28;107233;-78
2022/11/11 06:16:51;;;;;;;28.57;25.70;;;;;;;20.03;44.57;96288.34;6168516;28;103341;-78
2022/11/11 06:19:56;;;;;;;26.07;23.50;;;;;;;20.01;43.89;96287.81;6171450;28;103533;-79
2022/11/11 06:22:59;;;;;;;26.40;23.80;;;;;;;20.02;44.04;96292.06;6162238;28;104927;-77
2022/11/11 06:26:15;;;;;;;25.90;23.10;;;;;;;20.00;44.14;96289.69;6171305;28;104558;-77
2022/11/11 06:29:18;;;;;;;26.00;23.40;;;;;;;19.95;44.51;96297.63;6171524;28;102982;-78
2022/11/11 06:32:21;;;;;;;26.10;23.60;;;;;;;19.98;44.11;96296.28;6172113;28;103324;-78
2022/11/11 06:35:26;;;;;;;22.40;20.20;;;;;;;20.03;43.74;96289.16;6162889;28;103988;-77
2022/11/11 06:38:29;;;;;;;23.70;21.70;;;;;;;20.06;43.87;96298.47;6171876;28;103057;-77
2022/11/11 06:41:32;;;;;;;25.83;23.43;;;;;;;20.08;43.63;96306.97;6171708;28;104921;-78
2022/11/11 06:44:35;;;;;;;25.40;22.87;;;;;;;20.10;43.58;96312.81;6167732;28;103835;-78
2022/11/11 06:47:38;;;;;;;23.57;21.37;;;;;;;20.08;43.58;96311.47;6166449;28;105857;-77
2022/11/11 06:50:43;;;;;;;25.77;23.27;;;;;;;20.08;43.65;96312.28;6171048;28;104867;-78
2022/11/11 06:53:46;;;;;;;24.00;21.80;;;;;;;20.10;43.26;96304.03;6171135;28;104979;-77
2022/11/11 06:56:49;;;;;;;24.63;22.37;;;;;;;20.10;43.39;96296.88;6161840;28;102837;-77
2022/11/11 06:59:52;;;;;;;25.00;22.70;;;;;;;20.10;43.35;96299.53;6170375;28;107296;-77
2022/11/11 07:02:56;;;;;;;24.77;22.47;;;;;;;20.12;43.15;96299.25;6172050;28;106695;-79
2022/11/11 07:06:02;;;;;;;25.70;23.40;;;;;;;20.11;43.54;96298.47;6172098;28;103490;-79
2022/11/11 07:09:05;;;;;;;26.60;23.90;;;;;;;20.11;43.38;96298.47;6163374;28;106105;-80
2022/11/11 07:12:08;;;;;;;26.13;23.73;;;;;;;20.13;43.32;96306.16;6173570;28;104031;-81
2022/11/11 07:15:12;;;;;;;24.53;22.30;;;;;;;20.02;43.48;96286.75;6172020;28;107266;-81
2022/11/11 07:18:15;;;;;;;26.17;23.77;;;;;;;20.16;44.18;96306.44;6168898;28;107551;-81
2022/11/11 07:21:19;;;;;;;23.97;21.57;;;;;;;20.13;44.45;96301.66;6169523;28;104241;-79
2022/11/11 07:24:22;;;;;;;23.93;21.33;;;;;;;20.14;43.51;96311.22;6170613;28;104833;-80
2022/11/11 07:27:25;;;;;;;25.00;22.60;;;;;;;20.16;43.36;96322.38;6171091;28;104269;-79
2022/11/11 07:30:29;;;;;;;25.13;22.77;;;;;;;20.13;43.48;96309.63;6162919;28;104955;-80
2022/11/11 07:33:32;;;;;;;25.13;22.87;;;;;;;20.17;43.76;96315.25;6170682;28;102842;-80
2022/11/11 07:36:36;;;;;;;25.17;22.63;;;;;;;20.16;43.53;96314.41;6171165;28;103147;-81
2022/11/11 07:39:39;;;;;;;25.60;22.97;;;;;;;20.23;43.44;96319.50;6170738;28;103016;-80
2022/11/11 07:42:44;;;;;;;26.97;24.37;;;;;;;20.25;43.25;96318.19;6162369;28;105373;-80
2022/11/11 07:45:47;;;;;;;25.80;23.20;;;;;;;20.27;43.69;96329.38;6170696;28;107323;-79
2022/11/11 07:48:50;;;;;;;25.60;23.27;;;;;;;20.27;43.22;96323.25;6171876;28;103662;-79
2022/11/11 07:51:55;;;;;;;27.27;24.70;;;;;;;20.31;43.39;96329.63;6171325;28;103646;-80
2022/11/11 07:54:58;;;;;;;25.27;23.03;;;;;;;20.34;43.29;96331.00;6165473;28;104276;-80
2022/11/11 07:58:01;;;;;;;26.53;24.03;;;;;;;20.36;43.26;96339.50;6171005;28;105404;-80
2022/11/11 08:01:04;;;;;;;27.63;25.07;;;;;;;20.40;43.39;96335.25;6169557;28;104226;-80
2022/11/11 08:04:11;;;;;;;25.90;23.60;;;;;;;20.37;43.16;96341.91;6162458;28;104150;-81
2022/11/11 08:07:15;;;;;;;25.20;22.93;;;;;;;20.44;42.99;96341.63;6169909;28;104067;-80
2022/11/11 08:10:24;;;;;;;24.40;22.30;;;;;;;20.48;42.86;96342.69;6169793;28;106277;-79
2022/11/11 08:13:43;;;;;;;26.30;23.80;;;;;;;20.47;42.76;96341.91;6170163;28;103218;-80
2022/11/11 08:16:46;;;;;;;26.30;23.90;;;;;;;20.50;42.66;96351.22;6160745;28;106963;-79
2022/11/11 08:19:49;;;;;;;26.13;23.67;;;;;;;20.53;42.89;96350.72;6169204;28;103191;-79
2022/11/11 08:22:55;;;;;;;25.60;23.13;;;;;;;20.55;42.59;96360.00;6168956;28;103799;-79
2022/11/11 08:26:20;;;;;;;24.83;22.73;;;;;;;20.56;42.82;96353.63;6165549;28;102666;-79
2022/11/11 08:29:31;;;;;;;24.30;22.10;;;;;;;20.57;42.63;96352.56;6164993;28;104086;-79
2022/11/11 08:32:35;;;;;;;24.20;21.90;;;;;;;20.61;42.48;96358.94;6168439;28;103649;-79
2022/11/11 08:35:38;;;;;;;23.57;21.43;;;;;;;20.62;42.64;96365.06;6168347;28;104398;-80
2022/11/11 08:38:43;;;;;;;23.50;21.40;;;;;;;20.65;42.31;96364.53;6161241;28;105360;-79
2022/11/11 08:41:46;;;;;;;23.03;21.00;;;;;;;20.68;42.64;96361.38;6167520;28;104589;-79
2022/11/11 08:44:50;;;;;;;21.60;19.70;;;;;;;20.68;42.45;96364.03;6168391;28;103104;-79
2022/11/11 08:47:53;;;;;;;22.20;20.30;;;;;;;20.69;42.52;96362.97;6168582;28;103280;-80
2022/11/11 08:50:57;;;;;;;22.07;20.10;;;;;;;20.73;42.39;96363.22;6160758;28;105460;-79
2022/11/11 08:54:01;;;;;;;21.70;19.67;;;;;;;20.76;42.57;96360.03;6169829;28;104548;-80
2022/11/11 08:57:04;;;;;;;21.50;19.60;;;;;;;20.76;42.25;96363.50;6169016;28;104100;-80
2022/11/11 09:00:10;;;;;;;21.20;19.30;;;;;;;20.77;42.39;96365.09;6165680;28;102867;-79
2022/11/11 09:03:13;;;;;;;20.47;18.47;;;;;;;20.82;42.13;96358.97;6164277;28;103970;-79
2022/11/11 09:06:16;;;;;;;20.00;18.30;;;;;;;20.84;42.25;96351.56;6170022;28;106919;-79
2022/11/11 09:09:21;;;;;;;20.23;18.53;;;;;;;20.84;42.18;96352.34;6169075;28;104279;-79
2022/11/11 09:12:24;;;;;;;20.80;18.90;;;;;;;20.86;41.98;96355.53;6161169;28;105675;-79
2022/11/11 09:15:28;;;;;;;19.70;18.00;;;;;;;20.83;42.14;96345.41;6169181;28;102882;-79
2022/11/11 09:18:32;;;;;;;19.43;17.73;;;;;;;20.87;42.53;96356.34;6169595;28;105595;-79
2022/11/11 09:21:36;;;;;;;18.27;16.63;;;;;;;20.87;42.12;96345.69;6169561;28;105268;-79
2022/11/11 09:24:40;;;;;;;18.37;16.80;;;;;;;20.87;42.21;96353.69;6161414;28;104167;-80
2022/11/11 09:27:44;;;;;;;18.47;16.87;;;;;;;20.88;42.52;96345.44;6170476;28;107671;-80
2022/11/11 09:30:47;;;;;;;17.77;16.20;;;;;;;20.89;42.53;96344.34;6168340;28;104864;-79
2022/11/11 09:33:50;;;;;;;17.63;16.13;;;;;;;20.90;42.47;96351.28;6168496;28;105760;-80
2022/11/11 09:36:53;;;;;;;16.53;15.03;;;;;;;20.91;42.73;96344.09;6161940;28;104141;-79
2022/11/11 09:39:58;;;;;;;17.47;15.90;;;;;;;20.90;42.66;96350.47;6169615;28;107227;-79
2022/11/11 09:43:07;;;;;;;17.43;15.83;;;;;;;20.90;42.67;96342.50;6169220;28;102726;-81
2022/11/11 09:46:30;;;;;;;16.80;15.40;;;;;;;20.94;42.39;96335.56;6163177;28;103338;-81
2022/11/11 09:49:48;;;;;;;17.33;15.83;;;;;;;21.01;42.38;96345.97;6173206;28;103214;-80
2022/11/11 09:52:57;;;;;;;17.17;15.67;;;;;;;21.01;42.23;96333.47;6176347;28;103869;-80
2022/11/11 09:56:07;;;;;;;17.90;16.20;;;;;;;20.99;41.99;96332.91;6177074;28;103538;-81
2022/11/11 09:59:40;;;;;;;15.53;14.13;;;;;;;21.03;42.30;96330.53;6170494;28;103522;-81
2022/11/11 10:02:49;;;;;;;15.73;14.33;;;;;;;21.04;42.03;96321.47;6178529;28;107502;-81
2022/11/11 10:05:58;;;;;;;15.70;14.20;;;;;;;21.02;42.05;96332.41;6176543;28;103435;-81
2022/11/11 10:09:06;;;;;;;14.93;13.60;;;;;;;21.05;41.84;96329.22;6167994;28;103297;-82
2022/11/11 10:12:14;;;;;;;15.73;14.30;;;;;;;21.05;42.16;96323.09;6178125;28;104851;-81
2022/11/11 10:15:18;;;;;;;16.03;14.50;;;;;;;21.03;42.05;96328.66;6177369;28;103768;-82
2022/11/11 10:18:38;;;;;;;14.97;13.67;;;;;;;21.03;41.79;96320.69;6178425;28;102784;-81
2022/11/11 10:21:47;;;;;;;14.37;13.07;;;;;;;21.06;42.15;96324.69;6168692;28;103118;-80
2022/11/11 10:25:22;;;;;;;14.67;13.37;;;;;;;21.06;41.79;96327.34;6178221;28;104724;-83
2022/11/11 10:28:33;;;;;;;14.77;13.50;;;;;;;21.06;41.74;96317.50;6179632;28;102788;-82
2022/11/11 10:31:41;;;;;;;14.30;13.10;;;;;;;21.06;41.93;96325.50;6172311;28;102501;-82
2022/11/11 10:34:45;;;;;;;15.43;14.17;;;;;;;21.09;42.08;96316.19;6177759;28;104918;-82
2022/11/11 10:37:58;;;;;;;14.47;13.07;;;;;;;21.06;41.70;96308.72;6177058;28;102599;-81
2022/11/11 10:41:17;;;;;;;14.77;13.57;;;;;;;21.08;42.04;96309.25;6176966;28;105615;-82
2022/11/11 10:44:25;;;;;;;14.00;12.57;;;;;;;21.11;41.79;96311.38;6168591;28;102925;-82
2022/11/11 10:47:43;;;;;;;13.27;12.07;;;;;;;21.08;41.83;96311.91;6177099;28;102476;-82
2022/11/11 10:50:50;;;;;;;14.17;12.90;;;;;;;21.09;41.77;96318.84;6178346;28;104208;-81
2022/11/11 10:54:01;;;;;;;13.77;12.50;;;;;;;21.11;41.84;96316.69;6171870;28;103749;-82
2022/11/11 10:57:11;;;;;;;13.97;12.77;;;;;;;21.08;41.67;96295.94;6176832;28;105121;-81
2022/11/11 11:00:17;;;;;;;14.57;13.27;;;;;;;21.11;41.95;96304.19;6176694;28;102614;-81
2022/11/11 11:03:24;;;;;;;13.60;12.43;;;;;;;21.09;41.45;96305.53;6176657;28;103102;-81
2022/11/11 11:06:30;;;;;;;14.87;13.57;;;;;;;21.11;41.80;96298.06;6167489;28;102813;-80
2022/11/11 11:09:40;;;;;;;13.40;12.30;;;;;;;21.10;41.59;96294.63;6176069;28;103332;-81
2022/11/11 11:12:49;;;;;;;12.67;11.57;;;;;;;21.11;41.88;96298.06;6176962;28;104394;-81
2022/11/11 11:15:58;;;;;;;13.83;12.63;;;;;;;21.12;41.61;96295.13;6175843;28;105621;-80
2022/11/11 11:19:15;;;;;;;13.47;12.33;;;;;;;21.13;41.46;96295.94;6122913;28;103346;-80
2022/11/11 11:22:18;;;;;;;13.07;11.97;;;;;;;21.09;41.63;96292.22;6128357;28;103244;-80
2022/11/11 11:25:23;;;;;;;13.67;12.37;;;;;;;21.11;41.70;96292.75;6126472;28;103998;-80
2022/11/11 11:28:26;;;;;;;12.80;11.70;;;;;;;21.11;41.87;96288.22;6117520;28;104176;-80
2022/11/11 11:31:38;;;;;;;13.50;12.40;;;;;;;21.13;41.40;96283.41;6128666;28;103116;-81
2022/11/11 11:34:51;;;;;;;13.50;12.33;;;;;;;21.13;41.48;96272.78;6126177;28;102743;-80
2022/11/11 11:37:56;;;;;;;13.13;11.83;;;;;;;21.12;41.51;96279.16;6125585;28;102872;-81
2022/11/11 11:41:00;;;;;;;12.90;11.80;;;;;;;21.13;41.88;96272.78;6119318;28;103247;-81
2022/11/11 11:44:26;;;;;;;13.10;12.03;;;;;;;21.13;41.61;96279.97;6134948;28;103531;-80
2022/11/11 11:47:44;;;;;;;12.37;11.30;;;;;;;21.14;41.50;96276.22;6136605;28;102869;-80
2022/11/11 11:51:28;;;;;;;12.07;11.07;;;;;;;21.11;41.38;96266.94;6126789;28;102693;-80
2022/11/11 11:54:52;;;;;;;13.00;11.90;;;;;;;21.13;41.47;96279.97;6134452;28;103304;-80
2022/11/11 11:58:07;;;;;;;13.20;12.10;;;;;;;21.15;41.54;96272.50;6134468;28;103473;-81
2022/11/11 12:01:15;;;;;;;11.43;10.53;;;;;;;21.14;41.37;96273.56;6134661;28;103211;-79
2022/11/11 12:04:52;;;;;;;12.87;11.87;;;;;;;21.15;41.94;96272.50;6128642;28;103273;-80
2022/11/11 12:08:12;;;;;;;11.50;10.60;;;;;;;21.15;41.68;96267.19;6134399;28;105309;-79
2022/11/11 12:11:24;;;;;;;12.47;11.27;;;;;;;21.14;41.66;96265.59;6135211;28;102597;-81
2022/11/11 12:14:42;;;;;;;12.10;11.07;;;;;;;21.14;41.69;96260.25;6127552;28;103597;-81
2022/11/11 12:17:55;;;;;;;11.70;10.70;;;;;;;21.12;41.32;96251.75;6164682;28;102917;-81
2022/11/11 12:21:11;;;;;;;11.50;10.60;;;;;;;21.16;41.38;96263.44;6183863;28;105195;-80
2022/11/11 12:24:30;;;;;;;12.20;11.10;;;;;;;21.16;41.62;96252.81;6180162;28;103466;-80
2022/11/11 12:27:39;;;;;;;11.17;10.27;;;;;;;21.15;41.35;96252.00;6180329;28;102840;-80
2022/11/11 12:30:52;;;;;;;10.63;9.80;;;;;;;21.14;41.38;96249.63;6181151;28;105348;-81
2022/11/11 12:34:10;;;;;;;11.30;10.30;;;;;;;21.17;41.61;96249.06;6181863;28;104180;-80
2022/11/11 12:37:25;;;;;;;11.10;10.20;;;;;;;21.18;41.67;96245.38;6174043;28;103260;-80
2022/11/11 12:40:40;;;;;;;11.63;10.53;;;;;;;21.16;41.59;96239.50;6179984;28;104761;-80
2022/11/11 12:43:51;;;;;;;11.23;10.20;;;;;;;21.07;41.79;96230.47;6179769;28;103065;-79
2022/11/11 12:47:19;;;;;;;10.30;9.33;;;;;;;21.13;41.46;96238.19;6175260;28;102988;-78
2022/11/11 12:50:28;;;;;;;11.13;10.23;;;;;;;21.16;41.81;96236.84;6179829;28;103259;-80
2022/11/11 12:53:43;;;;;;;10.07;9.27;;;;;;;21.15;41.64;96240.56;6181769;28;102602;-80
2022/11/11 12:56:55;;;;;;;11.10;10.10;;;;;;;21.12;41.39;96233.91;6181171;28;102733;-80
2022/11/11 13:00:08;;;;;;;10.50;9.60;;;;;;;21.11;41.33;96229.66;6176377;28;103362;-79
2022/11/11 13:03:26;;;;;;;10.50;9.60;;;;;;;21.14;41.39;96230.97;6180844;28;104057;-80
2022/11/11 13:06:44;;;;;;;10.00;9.20;;;;;;;21.16;41.77;96234.16;6180932;28;103237;-79
2022/11/11 13:10:02;;;;;;;10.20;9.30;;;;;;;21.14;41.56;96238.97;6176667;28;103300;-80
2022/11/11 13:13:20;;;;;;;10.20;9.30;;;;;;;21.16;41.22;96244.81;6180801;28;102601;-79
2022/11/11 13:16:26;;;;;;;10.30;9.40;;;;;;;21.15;41.56;96244.03;6181180;28;103320;-79
2022/11/11 13:19:40;;;;;;;9.77;8.80;;;;;;;21.15;41.66;96252.00;6181390;28;104902;-80
2022/11/11 13:22:43;;;;;;;10.00;9.13;;;;;;;21.20;41.23;96248.56;6170523;28;104740;-79
2022/11/11 13:25:53;;;;;;;9.80;8.90;;;;;;;21.27;41.42;96254.38;6171145;28;103010;-80
2022/11/11 13:29:44;;;;;;;9.73;8.93;;;;;;;21.31;41.79;96246.66;6172454;28;103168;-80
2022/11/11 13:32:53;;;;;;;9.90;9.00;;;;;;;21.34;41.26;96254.09;6166284;28;102949;-81
2022/11/11 13:35:58;;;;;;;9.47;8.60;;;;;;;21.35;41.94;96256.50;6168381;28;103445;-80
2022/11/11 13:39:24;;;;;;;9.27;8.47;;;;;;;21.34;41.90;96249.59;6172116;28;103082;-80
2022/11/11 13:42:36;;;;;;;9.13;8.33;;;;;;;21.35;41.69;96247.72;6170497;28;102853;-80
2022/11/11 13:45:43;;;;;;;8.77;7.97;;;;;;;21.26;41.71;96252.78;6165373;28;103690;-80
2022/11/11 13:48:48;;;;;;;8.47;7.77;;;;;;;21.23;42.26;96263.19;6172992;28;102838;-81
2022/11/11 13:51:58;;;;;;;8.90;8.20;;;;;;;21.17;41.94;96254.41;6170445;28;103024;-81
2022/11/11 13:55:05;;;;;;;9.30;8.50;;;;;;;21.20;41.78;96252.00;6167926;28;102701;-80
2022/11/11 13:58:27;;;;;;;9.47;8.67;;;;;;;21.16;41.92;96250.13;6167448;28;103955;-80
2022/11/11 14:01:37;;;;;;;8.93;8.13;;;;;;;21.18;42.02;96262.13;6170119;28;103133;-80
2022/11/11 14:05:24;;;;;;;8.90;8.20;;;;;;;21.18;42.20;96262.13;6168691;28;103378;-80
2022/11/11 14:08:52;;;;;;;9.40;8.60;;;;;;;21.18;41.83;96266.66;6160999;28;106414;-79
2022/11/11 14:12:21;;;;;;;9.20;8.47;;;;;;;21.17;41.49;96263.22;6170168;28;102744;-80
2022/11/11 14:15:41;;;;;;;8.53;7.83;;;;;;;21.18;41.62;96266.66;6169945;28;106204;-80
2022/11/11 14:18:45;;;;;;;8.40;7.70;;;;;;;21.19;41.65;96263.72;6162459;28;103087;-80
2022/11/11 14:21:51;;;;;;;9.00;8.20;;;;;;;21.18;41.78;96272.00;6172378;28;103285;-81
2022/11/11 14:25:28;;;;;;;8.50;7.80;;;;;;;21.19;41.35;96273.59;6172314;28;103276;-80
2022/11/11 14:28:34;;;;;;;8.57;7.77;;;;;;;21.22;41.32;96278.38;6171275;28;102785;-80
2022/11/11 14:32:02;;;;;;;8.47;7.77;;;;;;;21.18;41.44;96274.66;6165092;28;103640;-80
2022/11/11 14:35:31;;;;;;;8.13;7.53;;;;;;;21.19;41.86;96273.59;6165990;28;106872;-78
2022/11/11 14:38:47;;;;;;;7.73;7.07;;;;;;;21.21;41.93;96279.44;6164764;28;102990;-80
2022/11/11 14:41:53;;;;;;;7.70;7.10;;;;;;;21.19;41.47;96279.69;6165397;28;104159;-80
2022/11/11 14:44:56;;;;;;;7.87;7.27;;;;;;;21.11;41.66;96264.25;6175353;28;102967;-81
2022/11/11 14:48:01;;;;;;;8.13;7.43;;;;;;;21.20;41.58;96280.50;6174388;28;103078;-80
2022/11/11 14:51:25;;;;;;;8.57;7.87;;;;;;;21.18;41.36;96283.44;6175578;28;103778;-80
2022/11/11 14:54:49;;;;;;;8.87;7.97;;;;;;;21.22;41.43;96286.34;6176520;28;103996;-79
2022/11/11 14:58:03;;;;;;;7.30;6.70;;;;;;;21.15;41.51;96283.16;6180941;28;103057;-80
2022/11/11 15:01:16;;;;;;;8.00;7.37;;;;;;;21.19;41.74;96290.34;6174839;28;102738;-81
2022/11/11 15:04:20;;;;;;;6.80;6.20;;;;;;;21.19;41.43;96295.69;6168811;28;103214;-80
2022/11/11 15:07:40;;;;;;;6.90;6.30;;;;;;;21.16;41.19;96293.53;6175171;28;103758;-81
2022/11/11 15:11:19;;;;;;;6.90;6.40;;;;;;;21.19;41.26;96300.22;6175920;28;105195;-80
2022/11/11 15:14:35;;;;;;;7.40;6.80;;;;;;;21.20;41.29;96297.28;6156025;28;103184;-80
2022/11/11 15:17:49;;;;;;;8.23;7.57;;;;;;;21.22;41.44;96302.31;6172211;28;102890;-81
2022/11/11 15:21:07;;;;;;;7.23;6.63;;;;;;;21.19;41.30;96308.97;6175793;28;105449;-80
2022/11/11 15:24:25;;;;;;;7.60;7.00;;;;;;;21.20;41.19;96305.25;6174760;28;103411;-81
2022/11/11 15:27:36;;;;;;;7.73;7.03;;;;;;;21.18;41.09;96307.41;6168893;28;106102;-81
2022/11/11 15:30:52;;;;;;;7.60;7.00;;;;;;;21.21;41.00;96298.06;6183820;28;103970;-80
2022/11/11 15:34:04;;;;;;;8.13;7.47;;;;;;;21.22;41.54;96304.97;6183899;28;102678;-81
2022/11/11 15:37:12;;;;;;;7.70;7.10;;;;;;;21.22;41.12;96307.66;6180428;28;102720;-80